sensor_id;sensor_type;location;lat;lon;timestamp;pressure;altitude;pressure_sealevel;temperature;humidity
26436;BME280;15351;52.408;16.826;2024-02-28T00:04:31;100922.21;;;10.58;87.68
26436;BME280;15351;52.408;16.826;2024-02-28T00:07:18;100919.34;;;10.56;87.53
26436;BME280;15351;52.408;16.826;2024-02-28T00:09:56;100918.40;;;10.55;87.57
26436;BME280;15351;52.408;16.826;2024-02-28T00:12:24;100922.35;;;10.55;87.45
26436;BME280;15351;52.408;16.826;2024-02-28T00:15:14;100924.88;;;10.55;87.37
26436;BME280;15351;52.408;16.826;2024-02-28T00:18:05;100926.56;;;10.54;87.45
26436;BME280;15351;52.408;16.826;2024-02-28T00:20:35;100927.98;;;10.55;87.46
26436;BME280;15351;52.408;16.826;2024-02-28T00:23:04;100922.48;;;10.54;87.58
26436;BME280;15351;52.408;16.826;2024-02-28T00:25:33;100926.08;;;10.54;87.51
26436;BME280;15351;52.408;16.826;2024-02-28T00:28:41;100924.74;;;10.53;87.48
26436;BME280;15351;52.408;16.826;2024-02-28T00:31:13;100925.95;;;10.52;87.58
26436;BME280;15351;52.408;16.826;2024-02-28T00:33:48;100929.59;;;10.52;87.66
26436;BME280;15351;52.408;16.826;2024-02-28T00:36:15;100928.38;;;10.51;87.77
26436;BME280;15351;52.408;16.826;2024-02-28T00:38:42;100929.59;;;10.51;88.00
26436;BME280;15351;52.408;16.826;2024-02-28T00:41:09;100931.95;;;10.53;87.98
26436;BME280;15351;52.408;16.826;2024-02-28T00:43:36;100932.19;;;10.52;87.84
26436;BME280;15351;52.408;16.826;2024-02-28T00:46:12;100927.40;;;10.52;87.78
26436;BME280;15351;52.408;16.826;2024-02-28T00:48:39;100934.14;;;10.51;87.77
26436;BME280;15351;52.408;16.826;2024-02-28T00:51:16;100936.63;;;10.51;87.96
26436;BME280;15351;52.408;16.826;2024-02-28T00:54:06;100930.71;;;10.51;88.15
26436;BME280;15351;52.408;16.826;2024-02-28T00:56:34;100930.88;;;10.51;88.18
26436;BME280;15351;52.408;16.826;2024-02-28T00:59:01;100934.17;;;10.51;88.23
26436;BME280;15351;52.408;16.826;2024-02-28T01:01:28;100932.02;;;10.51;88.38
26436;BME280;15351;52.408;16.826;2024-02-28T01:03:55;100928.61;;;10.52;88.27
26436;BME280;15351;52.408;16.826;2024-02-28T01:06:22;100930.70;;;10.53;88.46
26436;BME280;15351;52.408;16.826;2024-02-28T01:09:19;100927.64;;;10.53;88.51
26436;BME280;15351;52.408;16.826;2024-02-28T01:14:36;100929.49;;;10.54;88.55
26436;BME280;15351;52.408;16.826;2024-02-28T01:17:10;100926.12;;;10.55;88.58
26436;BME280;15351;52.408;16.826;2024-02-28T01:19:38;100922.64;;;10.54;88.67
26436;BME280;15351;52.408;16.826;2024-02-28T01:22:05;100920.25;;;10.54;88.76
26436;BME280;15351;52.408;16.826;2024-02-28T01:24:35;100920.36;;;10.55;88.72
26436;BME280;15351;52.408;16.826;2024-02-28T01:27:03;100917.65;;;10.54;88.85
26436;BME280;15351;52.408;16.826;2024-02-28T01:29:30;100918.10;;;10.55;88.91
26436;BME280;15351;52.408;16.826;2024-02-28T01:32:00;100918.77;;;10.55;89.05
26436;BME280;15351;52.408;16.826;2024-02-28T01:34:38;100917.48;;;10.55;89.20
26436;BME280;15351;52.408;16.826;2024-02-28T01:37:05;100913.20;;;10.57;88.93
26436;BME280;15351;52.408;16.826;2024-02-28T01:39:32;100910.44;;;10.57;88.92
26436;BME280;15351;52.408;16.826;2024-02-28T01:41:59;100904.84;;;10.57;88.94
26436;BME280;15351;52.408;16.826;2024-02-28T01:44:40;100906.73;;;10.57;88.86
26436;BME280;15351;52.408;16.826;2024-02-28T01:47:09;100895.81;;;10.56;88.93
26436;BME280;15351;52.408;16.826;2024-02-28T01:49:39;100896.24;;;10.57;89.10
26436;BME280;15351;52.408;16.826;2024-02-28T01:52:41;100896.48;;;10.58;88.97
26436;BME280;15351;52.408;16.826;2024-02-28T01:55:08;100899.08;;;10.58;89.13
26436;BME280;15351;52.408;16.826;2024-02-28T01:57:36;100900.49;;;10.59;89.00
26436;BME280;15351;52.408;16.826;2024-02-28T02:00:06;100901.20;;;10.57;88.91
26436;BME280;15351;52.408;16.826;2024-02-28T02:02:35;100898.51;;;10.57;88.96
26436;BME280;15351;52.408;16.826;2024-02-28T02:05:02;100899.28;;;10.58;88.99
26436;BME280;15351;52.408;16.826;2024-02-28T02:07:32;100900.39;;;10.58;88.98
26436;BME280;15351;52.408;16.826;2024-02-28T02:09:59;100899.11;;;10.58;88.89
26436;BME280;15351;52.408;16.826;2024-02-28T02:12:28;100896.21;;;10.59;89.06
26436;BME280;15351;52.408;16.826;2024-02-28T02:15:05;100891.77;;;10.58;88.93
26436;BME280;15351;52.408;16.826;2024-02-28T02:17:32;100887.89;;;10.58;88.93
26436;BME280;15351;52.408;16.826;2024-02-28T02:20:00;100889.00;;;10.57;88.89
26436;BME280;15351;52.408;16.826;2024-02-28T02:22:38;100896.15;;;10.56;88.74
26436;BME280;15351;52.408;16.826;2024-02-28T02:25:08;100899.05;;;10.56;88.79
26436;BME280;15351;52.408;16.826;2024-02-28T02:30:31;100902.17;;;10.54;88.75
26436;BME280;15351;52.408;16.826;2024-02-28T02:32:58;100902.95;;;10.53;88.90
26436;BME280;15351;52.408;16.826;2024-02-28T02:35:37;100901.38;;;10.53;88.88
26436;BME280;15351;52.408;16.826;2024-02-28T02:38:26;100898.20;;;10.52;89.14
26436;BME280;15351;52.408;16.826;2024-02-28T02:40:53;100898.04;;;10.52;89.20
26436;BME280;15351;52.408;16.826;2024-02-28T02:43:20;100902.98;;;10.53;89.29
26436;BME280;15351;52.408;16.826;2024-02-28T02:45:56;100903.49;;;10.53;89.21
26436;BME280;15351;52.408;16.826;2024-02-28T02:48:23;100907.06;;;10.55;89.33
26436;BME280;15351;52.408;16.826;2024-02-28T02:51:20;100907.89;;;10.56;89.31
26436;BME280;15351;52.408;16.826;2024-02-28T02:53:47;100906.33;;;10.55;89.45
26436;BME280;15351;52.408;16.826;2024-02-28T02:56:17;100908.02;;;10.56;89.43
26436;BME280;15351;52.408;16.826;2024-02-28T02:58:45;100908.22;;;10.57;89.34
26436;BME280;15351;52.408;16.826;2024-02-28T03:01:19;100903.98;;;10.58;89.43
26436;BME280;15351;52.408;16.826;2024-02-28T03:03:49;100903.77;;;10.59;89.21
26436;BME280;15351;52.408;16.826;2024-02-28T03:06:19;100900.94;;;10.58;89.27
26436;BME280;15351;52.408;16.826;2024-02-28T03:08:54;100897.87;;;10.57;89.36
26436;BME280;15351;52.408;16.826;2024-02-28T03:11:34;100900.94;;;10.57;89.37
26436;BME280;15351;52.408;16.826;2024-02-28T03:14:02;100904.08;;;10.56;89.39
26436;BME280;15351;52.408;16.826;2024-02-28T03:16:33;100905.89;;;10.56;89.28
26436;BME280;15351;52.408;16.826;2024-02-28T03:19:04;100909.43;;;10.56;89.49
26436;BME280;15351;52.408;16.826;2024-02-28T03:21:31;100915.81;;;10.57;89.59
26436;BME280;15351;52.408;16.826;2024-02-28T03:24:01;100916.78;;;10.57;89.53
26436;BME280;15351;52.408;16.826;2024-02-28T03:26:38;100918.80;;;10.56;89.48
26436;BME280;15351;52.408;16.826;2024-02-28T03:29:08;100919.75;;;10.56;89.51
26436;BME280;15351;52.408;16.826;2024-02-28T03:32:03;100916.85;;;10.56;89.65
26436;BME280;15351;52.408;16.826;2024-02-28T03:34:42;100915.09;;;10.56;89.74
26436;BME280;15351;52.408;16.826;2024-02-28T03:37:09;100913.52;;;10.55;89.89
26436;BME280;15351;52.408;16.826;2024-02-28T03:39:40;100913.72;;;10.55;89.90
26436;BME280;15351;52.408;16.826;2024-02-28T03:42:07;100915.33;;;10.55;89.87
26436;BME280;15351;52.408;16.826;2024-02-28T03:44:34;100917.26;;;10.56;89.84
26436;BME280;15351;52.408;16.826;2024-02-28T03:47:01;100920.42;;;10.55;89.79
26436;BME280;15351;52.408;16.826;2024-02-28T03:49:36;100921.34;;;10.55;89.84
26436;BME280;15351;52.408;16.826;2024-02-28T03:52:26;100922.45;;;10.54;89.93
26436;BME280;15351;52.408;16.826;2024-02-28T03:55:31;100925.61;;;10.53;89.91
26436;BME280;15351;52.408;16.826;2024-02-28T03:57:58;100923.09;;;10.52;89.98
26436;BME280;15351;52.408;16.826;2024-02-28T04:00:37;100925.89;;;10.52;90.12
26436;BME280;15351;52.408;16.826;2024-02-28T04:03:08;100921.42;;;10.52;90.09
26436;BME280;15351;52.408;16.826;2024-02-28T04:05:35;100923.02;;;10.51;90.07
26436;BME280;15351;52.408;16.826;2024-02-28T04:08:03;100925.90;;;10.49;90.20
26436;BME280;15351;52.408;16.826;2024-02-28T04:10:46;100925.80;;;10.48;90.15
26436;BME280;15351;52.408;16.826;2024-02-28T04:13:20;100920.92;;;10.48;90.11
26436;BME280;15351;52.408;16.826;2024-02-28T04:15:47;100923.61;;;10.48;90.13
26436;BME280;15351;52.408;16.826;2024-02-28T04:18:24;100928.46;;;10.49;90.17
26436;BME280;15351;52.408;16.826;2024-02-28T04:21:11;100928.64;;;10.49;90.40
26436;BME280;15351;52.408;16.826;2024-02-28T04:23:41;100926.33;;;10.50;90.45
26436;BME280;15351;52.408;16.826;2024-02-28T04:26:17;100927.02;;;10.52;90.49
26436;BME280;15351;52.408;16.826;2024-02-28T04:31:46;100931.31;;;10.54;90.24
26436;BME280;15351;52.408;16.826;2024-02-28T04:34:13;100930.67;;;10.53;90.16
26436;BME280;15351;52.408;16.826;2024-02-28T04:37:09;100933.13;;;10.50;90.23
26436;BME280;15351;52.408;16.826;2024-02-28T04:39:45;100936.09;;;10.51;90.27
26436;BME280;15351;52.408;16.826;2024-02-28T04:42:21;100943.85;;;10.52;90.31
26436;BME280;15351;52.408;16.826;2024-02-28T04:45:01;100941.90;;;10.54;90.24
26436;BME280;15351;52.408;16.826;2024-02-28T04:47:31;100945.16;;;10.54;90.28
26436;BME280;15351;52.408;16.826;2024-02-28T04:50:08;100942.57;;;10.54;90.29
26436;BME280;15351;52.408;16.826;2024-02-28T04:52:36;100939.89;;;10.56;90.24
26436;BME280;15351;52.408;16.826;2024-02-28T04:55:03;100937.90;;;10.56;90.14
26436;BME280;15351;52.408;16.826;2024-02-28T04:57:33;100939.71;;;10.56;90.13
26436;BME280;15351;52.408;16.826;2024-02-28T05:00:00;100936.55;;;10.55;89.97
26436;BME280;15351;52.408;16.826;2024-02-28T05:02:40;100937.89;;;10.54;90.00
26436;BME280;15351;52.408;16.826;2024-02-28T05:05:21;100935.83;;;10.54;90.05
26436;BME280;15351;52.408;16.826;2024-02-28T05:08:11;100939.42;;;10.52;90.02
26436;BME280;15351;52.408;16.826;2024-02-28T05:10:38;100942.64;;;10.51;90.27
26436;BME280;15351;52.408;16.826;2024-02-28T05:13:37;100949.23;;;10.50;90.16
26436;BME280;15351;52.408;16.826;2024-02-28T05:16:35;100955.07;;;10.49;90.17
26436;BME280;15351;52.408;16.826;2024-02-28T05:19:04;100954.77;;;10.48;90.15
26436;BME280;15351;52.408;16.826;2024-02-28T05:22:06;100957.06;;;10.48;90.15
26436;BME280;15351;52.408;16.826;2024-02-28T05:24:33;100958.20;;;10.48;90.24
26436;BME280;15351;52.408;16.826;2024-02-28T05:27:08;100962.91;;;10.47;90.06
26436;BME280;15351;52.408;16.826;2024-02-28T05:30:03;100966.42;;;10.48;90.10
26436;BME280;15351;52.408;16.826;2024-02-28T05:32:58;100971.66;;;10.46;89.99
26436;BME280;15351;52.408;16.826;2024-02-28T05:35:28;100979.59;;;10.46;90.18
26436;BME280;15351;52.408;16.826;2024-02-28T05:37:55;100982.85;;;10.46;90.07
26436;BME280;15351;52.408;16.826;2024-02-28T05:40:51;100987.80;;;10.45;89.90
26436;BME280;15351;52.408;16.826;2024-02-28T05:43:18;100995.15;;;10.44;90.06
26436;BME280;15351;52.408;16.826;2024-02-28T05:45:45;100996.26;;;10.43;90.03
26436;BME280;15351;52.408;16.826;2024-02-28T05:50:49;101002.53;;;10.42;89.93
26436;BME280;15351;52.408;16.826;2024-02-28T05:53:24;101007.45;;;10.41;89.99
26436;BME280;15351;52.408;16.826;2024-02-28T05:55:56;101013.38;;;10.42;89.87
26436;BME280;15351;52.408;16.826;2024-02-28T05:58:24;101014.66;;;10.40;90.04
26436;BME280;15351;52.408;16.826;2024-02-28T06:03:31;101016.47;;;10.38;90.07
26436;BME280;15351;52.408;16.826;2024-02-28T06:06:18;101023.54;;;10.36;90.13
26436;BME280;15351;52.408;16.826;2024-02-28T06:08:46;101027.04;;;10.35;90.22
26436;BME280;15351;52.408;16.826;2024-02-28T06:11:13;101030.00;;;10.35;90.13
26436;BME280;15351;52.408;16.826;2024-02-28T06:13:42;101033.84;;;10.34;90.02
26436;BME280;15351;52.408;16.826;2024-02-28T06:16:15;101032.76;;;10.32;90.22
26436;BME280;15351;52.408;16.826;2024-02-28T06:18:44;101037.71;;;10.31;90.28
26436;BME280;15351;52.408;16.826;2024-02-28T06:21:13;101036.52;;;10.30;90.28
26436;BME280;15351;52.408;16.826;2024-02-28T06:23:40;101037.98;;;10.30;90.40
26436;BME280;15351;52.408;16.826;2024-02-28T06:26:07;101037.08;;;10.32;90.63
26436;BME280;15351;52.408;16.826;2024-02-28T06:28:41;101032.39;;;10.34;90.62
26436;BME280;15351;52.408;16.826;2024-02-28T06:31:17;101034.55;;;10.34;90.52
26436;BME280;15351;52.408;16.826;2024-02-28T06:33:44;101040.20;;;10.33;90.54
26436;BME280;15351;52.408;16.826;2024-02-28T06:36:11;101037.14;;;10.33;90.50
26436;BME280;15351;52.408;16.826;2024-02-28T06:38:38;101045.70;;;10.34;90.69
26436;BME280;15351;52.408;16.826;2024-02-28T06:41:05;101043.77;;;10.34;90.59
26436;BME280;15351;52.408;16.826;2024-02-28T06:43:35;101048.15;;;10.35;90.67
26436;BME280;15351;52.408;16.826;2024-02-28T06:46:03;101044.95;;;10.34;90.46
26436;BME280;15351;52.408;16.826;2024-02-28T06:48:30;101047.16;;;10.36;90.49
26436;BME280;15351;52.408;16.826;2024-02-28T06:50:57;101051.12;;;10.37;90.67
26436;BME280;15351;52.408;16.826;2024-02-28T06:53:25;101054.33;;;10.37;90.50
26436;BME280;15351;52.408;16.826;2024-02-28T06:55:53;101056.78;;;10.37;90.44
26436;BME280;15351;52.408;16.826;2024-02-28T06:58:20;101059.02;;;10.37;90.53
26436;BME280;15351;52.408;16.826;2024-02-28T07:01:07;101060.91;;;10.38;90.66
26436;BME280;15351;52.408;16.826;2024-02-28T07:03:58;101065.18;;;10.38;90.43
26436;BME280;15351;52.408;16.826;2024-02-28T07:06:24;101070.71;;;10.38;90.51
26436;BME280;15351;52.408;16.826;2024-02-28T07:08:51;101075.36;;;10.38;90.61
26436;BME280;15351;52.408;16.826;2024-02-28T07:11:38;101075.27;;;10.39;90.67
26436;BME280;15351;52.408;16.826;2024-02-28T07:14:05;101078.27;;;10.40;90.60
26436;BME280;15351;52.408;16.826;2024-02-28T07:16:45;101076.25;;;10.40;90.47
26436;BME280;15351;52.408;16.826;2024-02-28T07:19:19;101080.88;;;10.41;90.62
26436;BME280;15351;52.408;16.826;2024-02-28T07:21:51;101084.45;;;10.43;90.54
26436;BME280;15351;52.408;16.826;2024-02-28T07:24:18;101086.27;;;10.44;90.67
26436;BME280;15351;52.408;16.826;2024-02-28T07:26:48;101089.89;;;10.46;90.48
26436;BME280;15351;52.408;16.826;2024-02-28T07:29:15;101092.36;;;10.46;90.72
26436;BME280;15351;52.408;16.826;2024-02-28T07:31:42;101095.45;;;10.48;90.66
26436;BME280;15351;52.408;16.826;2024-02-28T07:34:51;101095.27;;;10.47;90.35
26436;BME280;15351;52.408;16.826;2024-02-28T07:37:17;101104.00;;;10.46;90.51
26436;BME280;15351;52.408;16.826;2024-02-28T07:39:44;101106.67;;;10.45;90.49
26436;BME280;15351;52.408;16.826;2024-02-28T07:42:20;101103.05;;;10.45;90.57
26436;BME280;15351;52.408;16.826;2024-02-28T07:44:50;101101.02;;;10.46;90.59
26436;BME280;15351;52.408;16.826;2024-02-28T07:47:20;101103.98;;;10.42;90.80
26436;BME280;15351;52.408;16.826;2024-02-28T07:49:46;101105.75;;;10.40;90.75
26436;BME280;15351;52.408;16.826;2024-02-28T07:52:13;101100.96;;;10.39;90.89
26436;BME280;15351;52.408;16.826;2024-02-28T07:54:46;101107.46;;;10.39;90.71
26436;BME280;15351;52.408;16.826;2024-02-28T07:57:14;101110.73;;;10.40;90.94
26436;BME280;15351;52.408;16.826;2024-02-28T07:59:42;101110.69;;;10.43;90.86
26436;BME280;15351;52.408;16.826;2024-02-28T08:02:09;101111.77;;;10.43;90.71
26436;BME280;15351;52.408;16.826;2024-02-28T08:04:38;101109.66;;;10.39;90.81
26436;BME280;15351;52.408;16.826;2024-02-28T08:07:06;101112.05;;;10.38;90.86
26436;BME280;15351;52.408;16.826;2024-02-28T08:09:33;101114.05;;;10.40;90.89
26436;BME280;15351;52.408;16.826;2024-02-28T08:12:19;101112.99;;;10.40;90.84
26436;BME280;15351;52.408;16.826;2024-02-28T08:14:46;101109.95;;;10.38;90.74
26436;BME280;15351;52.408;16.826;2024-02-28T08:17:13;101106.91;;;10.37;90.63
26436;BME280;15351;52.408;16.826;2024-02-28T08:19:41;101109.94;;;10.35;90.74
26436;BME280;15351;52.408;16.826;2024-02-28T08:22:09;101106.73;;;10.35;90.73
26436;BME280;15351;52.408;16.826;2024-02-28T08:24:37;101118.04;;;10.37;90.74
26436;BME280;15351;52.408;16.826;2024-02-28T08:27:04;101112.46;;;10.35;90.76
26436;BME280;15351;52.408;16.826;2024-02-28T08:29:32;101116.88;;;10.34;90.58
26436;BME280;15351;52.408;16.826;2024-02-28T08:32:00;101120.67;;;10.34;90.85
26436;BME280;15351;52.408;16.826;2024-02-28T08:34:30;101121.78;;;10.32;90.64
26436;BME280;15351;52.408;16.826;2024-02-28T08:37:00;101125.58;;;10.30;90.56
26436;BME280;15351;52.408;16.826;2024-02-28T08:39:27;101129.11;;;10.29;90.65
26436;BME280;15351;52.408;16.826;2024-02-28T08:41:53;101137.43;;;10.28;90.44
26436;BME280;15351;52.408;16.826;2024-02-28T08:44:20;101136.65;;;10.27;90.32
26436;BME280;15351;52.408;16.826;2024-02-28T08:46:53;101140.23;;;10.27;90.32
26436;BME280;15351;52.408;16.826;2024-02-28T08:49:20;101138.77;;;10.24;90.29
26436;BME280;15351;52.408;16.826;2024-02-28T08:51:47;101137.40;;;10.23;90.27
26436;BME280;15351;52.408;16.826;2024-02-28T08:54:14;101139.44;;;10.25;90.19
26436;BME280;15351;52.408;16.826;2024-02-28T08:56:41;101139.20;;;10.25;90.18
26436;BME280;15351;52.408;16.826;2024-02-28T08:59:08;101141.30;;;10.26;90.20
26436;BME280;15351;52.408;16.826;2024-02-28T09:01:36;101137.75;;;10.25;90.14
26436;BME280;15351;52.408;16.826;2024-02-28T09:04:03;101142.27;;;10.25;90.13
26436;BME280;15351;52.408;16.826;2024-02-28T09:06:30;101141.48;;;10.24;90.28
26436;BME280;15351;52.408;16.826;2024-02-28T09:08:57;101140.44;;;10.22;90.11
26436;BME280;15351;52.408;16.826;2024-02-28T09:11:25;101145.07;;;10.21;90.15
26436;BME280;15351;52.408;16.826;2024-02-28T09:13:52;101149.02;;;10.22;90.23
26436;BME280;15351;52.408;16.826;2024-02-28T09:16:19;101152.10;;;10.24;90.23
26436;BME280;15351;52.408;16.826;2024-02-28T09:18:46;101150.11;;;10.24;90.14
26436;BME280;15351;52.408;16.826;2024-02-28T09:21:13;101153.71;;;10.22;90.02
26436;BME280;15351;52.408;16.826;2024-02-28T09:23:42;101158.16;;;10.23;89.86
26436;BME280;15351;52.408;16.826;2024-02-28T09:26:11;101159.48;;;10.22;89.88
26436;BME280;15351;52.408;16.826;2024-02-28T09:28:38;101160.38;;;10.21;89.73
26436;BME280;15351;52.408;16.826;2024-02-28T09:31:05;101162.05;;;10.18;89.60
26436;BME280;15351;52.408;16.826;2024-02-28T09:33:32;101167.44;;;10.18;89.70
26436;BME280;15351;52.408;16.826;2024-02-28T09:35:58;101167.02;;;10.17;89.65
26436;BME280;15351;52.408;16.826;2024-02-28T09:38:25;101165.56;;;10.15;89.55
26436;BME280;15351;52.408;16.826;2024-02-28T09:40:56;101168.78;;;10.14;89.33
26436;BME280;15351;52.408;16.826;2024-02-28T09:43:31;101166.11;;;10.12;89.49
26436;BME280;15351;52.408;16.826;2024-02-28T09:46:28;101166.95;;;10.13;89.54
26436;BME280;15351;52.408;16.826;2024-02-28T11:24:17;101246.43;;;9.98;88.14
26436;BME280;15351;52.408;16.826;2024-02-28T11:26:48;101245.10;;;9.97;88.23
26436;BME280;15351;52.408;16.826;2024-02-28T11:29:22;101247.74;;;9.98;88.19
26436;BME280;15351;52.408;16.826;2024-02-28T11:31:51;101251.86;;;9.98;88.12
26436;BME280;15351;52.408;16.826;2024-02-28T11:34:20;101252.80;;;9.99;88.17
26436;BME280;15351;52.408;16.826;2024-02-28T11:36:48;101251.31;;;9.98;87.86
26436;BME280;15351;52.408;16.826;2024-02-28T11:39:16;101258.16;;;9.96;87.65
26436;BME280;15351;52.408;16.826;2024-02-28T11:41:46;101255.15;;;9.94;87.43
26436;BME280;15351;52.408;16.826;2024-02-28T11:44:14;101256.44;;;9.95;87.64
26436;BME280;15351;52.408;16.826;2024-02-28T11:46:55;101261.67;;;9.97;87.54
26436;BME280;15351;52.408;16.826;2024-02-28T11:49:39;101262.20;;;9.95;87.40
26436;BME280;15351;52.408;16.826;2024-02-28T11:52:06;101267.03;;;9.93;87.32
26436;BME280;15351;52.408;16.826;2024-02-28T11:54:45;101270.20;;;9.96;87.23
26436;BME280;15351;52.408;16.826;2024-02-28T11:57:12;101270.23;;;9.96;87.06
26436;BME280;15351;52.408;16.826;2024-02-28T11:59:40;101270.11;;;9.95;87.13
26436;BME280;15351;52.408;16.826;2024-02-28T12:02:13;101275.88;;;9.95;87.01
26436;BME280;15351;52.408;16.826;2024-02-28T12:04:44;101280.99;;;9.94;86.93
26436;BME280;15351;52.408;16.826;2024-02-28T12:07:12;101276.38;;;9.92;86.67
26436;BME280;15351;52.408;16.826;2024-02-28T12:09:39;101276.26;;;9.90;86.61
26436;BME280;15351;52.408;16.826;2024-02-28T12:12:07;101283.17;;;9.91;86.56
26436;BME280;15351;52.408;16.826;2024-02-28T12:14:38;101283.16;;;9.89;86.46
26436;BME280;15351;52.408;16.826;2024-02-28T12:17:09;101281.20;;;9.89;86.43
26436;BME280;15351;52.408;16.826;2024-02-28T12:19:37;101284.53;;;9.88;86.29
26436;BME280;15351;52.408;16.826;2024-02-28T12:22:05;101279.48;;;9.84;86.10
26436;BME280;15351;52.408;16.826;2024-02-28T12:24:34;101283.94;;;9.83;86.23
26436;BME280;15351;52.408;16.826;2024-02-28T12:27:01;101285.78;;;9.79;86.02
26436;BME280;15351;52.408;16.826;2024-02-28T12:29:28;101293.21;;;9.78;86.15
26436;BME280;15351;52.408;16.826;2024-02-28T12:31:55;101297.73;;;9.78;86.07
26436;BME280;15351;52.408;16.826;2024-02-28T12:34:22;101298.09;;;9.78;86.15
26436;BME280;15351;52.408;16.826;2024-02-28T12:36:49;101296.98;;;9.78;86.25
26436;BME280;15351;52.408;16.826;2024-02-28T12:39:15;101294.34;;;9.76;86.11
26436;BME280;15351;52.408;16.826;2024-02-28T12:41:42;101295.09;;;9.74;86.14
26436;BME280;15351;52.408;16.826;2024-02-28T12:44:09;101295.25;;;9.70;86.07
26436;BME280;15351;52.408;16.826;2024-02-28T12:46:37;101296.33;;;9.69;85.84
26436;BME280;15351;52.408;16.826;2024-02-28T12:49:04;101293.85;;;9.68;85.95
26436;BME280;15351;52.408;16.826;2024-02-28T12:51:44;101297.93;;;9.69;85.90
26436;BME280;15351;52.408;16.826;2024-02-28T12:54:12;101305.42;;;9.69;85.77
26436;BME280;15351;52.408;16.826;2024-02-28T12:56:42;101309.88;;;9.70;85.77
26436;BME280;15351;52.408;16.826;2024-02-28T12:59:13;101308.81;;;9.68;85.67
26436;BME280;15351;52.408;16.826;2024-02-28T13:01:40;101310.30;;;9.69;85.78
26436;BME280;15351;52.408;16.826;2024-02-28T13:04:07;101309.06;;;9.71;85.74
26436;BME280;15351;52.408;16.826;2024-02-28T13:06:33;101310.59;;;9.72;85.51
26436;BME280;15351;52.408;16.826;2024-02-28T13:09:01;101313.27;;;9.72;85.56
26436;BME280;15351;52.408;16.826;2024-02-28T13:11:28;101309.50;;;9.73;85.46
26436;BME280;15351;52.408;16.826;2024-02-28T13:13:55;101309.67;;;9.74;85.48
26436;BME280;15351;52.408;16.826;2024-02-28T13:16:24;101310.45;;;9.75;85.40
26436;BME280;15351;52.408;16.826;2024-02-28T13:18:51;101306.44;;;9.74;85.39
26436;BME280;15351;52.408;16.826;2024-02-28T13:21:18;101310.95;;;9.73;85.29
26436;BME280;15351;52.408;16.826;2024-02-28T13:23:45;101311.65;;;9.74;85.31
26436;BME280;15351;52.408;16.826;2024-02-28T13:26:12;101306.98;;;9.74;85.14
26436;BME280;15351;52.408;16.826;2024-02-28T13:28:44;101304.76;;;9.74;85.14
26436;BME280;15351;52.408;16.826;2024-02-28T13:31:14;101304.57;;;9.72;84.79
26436;BME280;15351;52.408;16.826;2024-02-28T13:33:41;101304.41;;;9.71;84.96
26436;BME280;15351;52.408;16.826;2024-02-28T13:36:08;101311.39;;;9.71;85.02
26436;BME280;15351;52.408;16.826;2024-02-28T13:38:36;101310.83;;;9.71;84.82
26436;BME280;15351;52.408;16.826;2024-02-28T13:41:03;101314.95;;;9.69;85.02
26436;BME280;15351;52.408;16.826;2024-02-28T13:43:30;101320.63;;;9.70;84.86
26436;BME280;15351;52.408;16.826;2024-02-28T13:45:58;101321.93;;;9.69;84.54
26436;BME280;15351;52.408;16.826;2024-02-28T13:48:27;101321.80;;;9.69;84.79
26436;BME280;15351;52.408;16.826;2024-02-28T13:50:59;101326.86;;;9.69;84.57
26436;BME280;15351;52.408;16.826;2024-02-28T13:53:26;101326.07;;;9.68;84.69
26436;BME280;15351;52.408;16.826;2024-02-28T13:55:52;101328.54;;;9.66;84.67
26436;BME280;15351;52.408;16.826;2024-02-28T13:58:31;101326.67;;;9.67;84.72
26436;BME280;15351;52.408;16.826;2024-02-28T14:01:19;101327.08;;;9.67;84.65
26436;BME280;15351;52.408;16.826;2024-02-28T14:03:46;101324.98;;;9.64;84.51
26436;BME280;15351;52.408;16.826;2024-02-28T14:06:13;101329.88;;;9.62;84.60
26436;BME280;15351;52.408;16.826;2024-02-28T14:08:49;101333.34;;;9.61;84.47
26436;BME280;15351;52.408;16.826;2024-02-28T14:11:18;101332.44;;;9.60;84.31
26436;BME280;15351;52.408;16.826;2024-02-28T14:13:45;101331.98;;;9.59;84.26
26436;BME280;15351;52.408;16.826;2024-02-28T14:16:12;101332.04;;;9.57;84.31
26436;BME280;15351;52.408;16.826;2024-02-28T14:18:39;101333.45;;;9.53;84.19
26436;BME280;15351;52.408;16.826;2024-02-28T14:21:06;101333.05;;;9.51;84.38
26436;BME280;15351;52.408;16.826;2024-02-28T14:23:36;101338.23;;;9.53;84.42
26436;BME280;15351;52.408;16.826;2024-02-28T14:26:03;101341.11;;;9.54;84.33
26436;BME280;15351;52.408;16.826;2024-02-28T14:28:30;101345.95;;;9.52;84.34
26436;BME280;15351;52.408;16.826;2024-02-28T14:30:57;101347.91;;;9.50;84.41
26436;BME280;15351;52.408;16.826;2024-02-28T14:33:27;101351.20;;;9.49;84.49
26436;BME280;15351;52.408;16.826;2024-02-28T14:35:54;101353.20;;;9.48;84.55
26436;BME280;15351;52.408;16.826;2024-02-28T14:38:21;101355.05;;;9.48;84.40
26436;BME280;15351;52.408;16.826;2024-02-28T14:40:47;101360.71;;;9.48;84.34
26436;BME280;15351;52.408;16.826;2024-02-28T14:43:15;101352.64;;;9.46;84.34
26436;BME280;15351;52.408;16.826;2024-02-28T14:45:42;101359.06;;;9.43;84.23
26436;BME280;15351;52.408;16.826;2024-02-28T14:48:09;101358.13;;;9.42;84.23
26436;BME280;15351;52.408;16.826;2024-02-28T14:50:35;101360.12;;;9.40;84.06
26436;BME280;15351;52.408;16.826;2024-02-28T14:53:03;101366.23;;;9.36;84.08
26436;BME280;15351;52.408;16.826;2024-02-28T14:55:29;101365.92;;;9.35;84.01
26436;BME280;15351;52.408;16.826;2024-02-28T14:57:56;101368.52;;;9.36;84.04